Time;durP1;ratioP1;P1;durP2;ratioP2;P2;SDS_P1;SDS_P2;PMS_P1;PMS_P2;Temp;Humidity;BMP_temperature;BMP_pressure;BME280_temperature;BME280_humidity;BME280_pressure;Samples;Min_cycle;Max_cycle;Signal;HPM_P1;HPM_P2
2021/08/16 00:01:05;;;;;;;;;;;14.60;99.90;;;;;;5074112;28;19925;-72
2021/08/16 00:03:32;;;;;;;;;;;14.60;99.90;;;;;;5074750;28;20356;-72
2021/08/16 00:05:59;;;;;;;;;;;14.60;99.90;;;;;;5074474;28;19924;-72
2021/08/16 00:08:26;;;;;;;;;;;14.60;99.90;;;;;;5074567;28;19924;-73
2021/08/16 00:10:54;;;;;;;;;;;14.70;99.90;;;;;;5074352;28;19925;-73
2021/08/16 00:13:24;;;;;;;;;;;14.70;99.90;;;;;;5074282;28;19935;-72
2021/08/16 00:15:51;;;;;;;;;;;14.70;99.90;;;;;;5074167;28;20341;-72
2021/08/16 00:18:18;;;;;;;;;;;14.70;99.90;;;;;;5074421;28;20394;-73
2021/08/16 00:20:44;;;;;;;;;;;14.70;99.90;;;;;;5074717;28;19935;-73
2021/08/16 00:23:11;;;;;;;;;;;14.70;99.90;;;;;;5074656;28;19928;-72
2021/08/16 00:25:38;;;;;;;;;;;14.70;99.90;;;;;;5074339;28;20371;-73
2021/08/16 00:28:06;;;;;;;;;;;14.70;99.90;;;;;;5074235;28;19924;-73
2021/08/16 00:30:33;;;;;;;;;;;14.70;99.90;;;;;;5077611;28;19925;-72
2021/08/16 00:33:00;;;;;;;;;;;14.70;99.90;;;;;;5077680;28;19931;-73
2021/08/16 00:35:27;;;;;;;;;;;14.70;99.90;;;;;;5077999;28;19925;-72
2021/08/16 00:37:54;;;;;;;;;;;14.70;99.90;;;;;;5077737;28;19924;-72
2021/08/16 00:40:20;;;;;;;;;;;14.60;99.90;;;;;;5077653;28;19934;-72
2021/08/16 00:42:47;;;;;;;;;;;14.60;99.90;;;;;;5077616;28;19935;-72
2021/08/16 00:45:16;;;;;;;;;;;14.60;99.90;;;;;;5077488;28;19935;-73
2021/08/16 00:47:42;;;;;;;;;;;14.60;99.90;;;;;;5077868;28;19928;-72
2021/08/16 00:50:10;;;;;;;;;;;14.60;99.90;;;;;;5077489;28;19934;-73
2021/08/16 00:52:37;;;;;;;;;;;14.60;99.90;;;;;;5077743;28;20233;-72
2021/08/16 00:55:05;;;;;;;;;;;14.60;99.90;;;;;;5077507;28;19924;-72
2021/08/16 00:57:32;;;;;;;;;;;14.60;99.90;;;;;;5077196;28;20398;-73
2021/08/16 01:00:00;;;;;;;;;;;14.60;99.90;;;;;;5077317;28;19924;-72
2021/08/16 01:02:29;;;;;;;;;;;14.60;99.90;;;;;;5077265;28;19924;-72
2021/08/16 01:04:56;;;;;;;;;;;14.60;99.90;;;;;;5077334;28;19928;-72
2021/08/16 01:07:22;;;;;;;;;;;14.60;99.90;;;;;;5077097;28;20276;-72
2021/08/16 01:09:49;;;;;;;;;;;14.60;99.90;;;;;;5077175;28;19928;-72
2021/08/16 01:12:16;;;;;;;;;;;14.60;99.90;;;;;;5077613;28;19925;-72
2021/08/16 01:14:43;;;;;;;;;;;14.60;99.90;;;;;;5076988;28;20256;-72
2021/08/16 01:17:11;;;;;;;;;;;14.60;99.90;;;;;;5076909;28;19929;-73
2021/08/16 01:19:39;;;;;;;;;;;14.60;99.90;;;;;;5077174;28;19958;-72
2021/08/16 01:22:06;;;;;;;;;;;14.50;99.90;;;;;;5076874;28;20268;-72
2021/08/16 01:24:32;;;;;;;;;;;14.50;99.90;;;;;;5077111;28;20329;-72
2021/08/16 01:27:04;;;;;;;;;;;14.50;99.90;;;;;;5076803;28;19934;-72
2021/08/16 01:29:31;;;;;;;;;;;14.50;99.90;;;;;;5076786;28;19928;-72
2021/08/16 01:31:58;;;;;;;;;;;14.40;99.90;;;;;;5076660;28;19932;-73
2021/08/16 01:34:25;;;;;;;;;;;14.40;99.90;;;;;;5076554;28;19924;-72
2021/08/16 01:36:52;;;;;;;;;;;14.50;99.90;;;;;;5076507;28;19932;-73
2021/08/16 01:39:18;;;;;;;;;;;14.50;99.90;;;;;;5076476;28;20371;-72
2021/08/16 01:41:47;;;;;;;;;;;14.50;99.90;;;;;;5076175;28;19925;-72
2021/08/16 01:44:16;;;;;;;;;;;14.50;99.90;;;;;;5076502;28;20356;-73
2021/08/16 01:46:42;;;;;;;;;;;14.50;99.90;;;;;;5076466;28;20002;-72
2021/08/16 01:49:09;;;;;;;;;;;14.50;99.90;;;;;;5076340;28;19925;-72
2021/08/16 01:51:36;;;;;;;;;;;14.50;99.90;;;;;;5076566;28;19925;-73
2021/08/16 01:54:03;;;;;;;;;;;14.50;99.90;;;;;;5076145;28;20276;-72
2021/08/16 01:56:30;;;;;;;;;;;14.50;99.90;;;;;;5076287;28;19925;-72
2021/08/16 01:58:57;;;;;;;;;;;14.60;99.90;;;;;;5076239;28;19956;-72
2021/08/16 02:01:25;;;;;;;;;;;14.60;99.90;;;;;;5076105;28;19925;-73
2021/08/16 02:03:52;;;;;;;;;;;14.60;99.90;;;;;;5076128;28;19925;-72
2021/08/16 02:06:19;;;;;;;;;;;14.60;99.90;;;;;;5075903;28;19929;-72
2021/08/16 02:08:45;;;;;;;;;;;14.60;99.90;;;;;;5075835;28;19924;-72
2021/08/16 02:11:12;;;;;;;;;;;14.60;99.90;;;;;;5075981;28;19925;-72
2021/08/16 02:13:39;;;;;;;;;;;14.60;99.90;;;;;;5076134;28;20367;-72
2021/08/16 02:16:06;;;;;;;;;;;14.70;99.90;;;;;;5075807;28;19935;-73
2021/08/16 02:18:34;;;;;;;;;;;14.60;99.90;;;;;;5075685;28;19924;-72
2021/08/16 02:21:01;;;;;;;;;;;14.70;99.90;;;;;;5075675;28;19924;-73
2021/08/16 02:23:28;;;;;;;;;;;14.70;99.90;;;;;;5075970;28;19924;-73
2021/08/16 02:25:55;;;;;;;;;;;14.70;99.90;;;;;;5075774;28;19990;-72
2021/08/16 02:28:21;;;;;;;;;;;14.70;99.90;;;;;;5075510;28;20462;-72
2021/08/16 02:30:48;;;;;;;;;;;14.70;99.90;;;;;;5075710;28;19925;-73
2021/08/16 02:33:15;;;;;;;;;;;14.70;99.90;;;;;;5075540;28;20347;-73
2021/08/16 02:35:43;;;;;;;;;;;14.80;99.90;;;;;;5075578;28;19924;-72
2021/08/16 02:38:10;;;;;;;;;;;14.80;99.90;;;;;;5075643;28;19924;-73
2021/08/16 02:40:37;;;;;;;;;;;14.80;99.90;;;;;;5075311;28;20344;-73
2021/08/16 02:43:04;;;;;;;;;;;14.80;99.90;;;;;;5075335;28;19924;-72
2021/08/16 02:45:31;;;;;;;;;;;14.80;99.90;;;;;;5075314;28;19928;-72
2021/08/16 02:47:58;;;;;;;;;;;14.80;99.90;;;;;;5075276;28;19931;-73
2021/08/16 02:50:25;;;;;;;;;;;14.80;99.90;;;;;;5075583;28;19931;-73
2021/08/16 02:52:53;;;;;;;;;;;14.80;99.90;;;;;;5074669;28;19935;-72
2021/08/16 02:55:20;;;;;;;;;;;14.80;99.90;;;;;;5075337;28;19925;-73
2021/08/16 02:57:47;;;;;;;;;;;14.80;99.90;;;;;;5075139;28;19924;-72
2021/08/16 03:00:14;;;;;;;;;;;14.80;99.90;;;;;;5075150;28;19951;-73
2021/08/16 03:02:43;;;;;;;;;;;14.70;99.90;;;;;;5075087;28;19951;-73
2021/08/16 03:05:10;;;;;;;;;;;14.70;99.90;;;;;;5075254;28;19924;-72
2021/08/16 03:07:37;;;;;;;;;;;14.70;99.90;;;;;;5075087;28;20275;-72
2021/08/16 03:10:05;;;;;;;;;;;14.70;99.90;;;;;;5075313;28;19935;-72
2021/08/16 03:12:32;;;;;;;;;;;14.70;99.90;;;;;;5075094;28;19924;-72
2021/08/16 03:14:59;;;;;;;;;;;14.60;99.90;;;;;;5074886;28;20336;-72
2021/08/16 03:17:26;;;;;;;;;;;14.60;99.90;;;;;;5075280;28;19924;-73
2021/08/16 03:19:53;;;;;;;;;;;14.70;99.90;;;;;;5075058;28;20405;-73
2021/08/16 03:22:20;;;;;;;;;;;14.60;99.90;;;;;;5074907;28;19925;-73
2021/08/16 03:24:46;;;;;;;;;;;14.60;99.90;;;;;;5074992;28;19924;-73
2021/08/16 03:27:15;;;;;;;;;;;14.60;99.90;;;;;;5074809;28;20348;-73
2021/08/16 03:29:42;;;;;;;;;;;14.60;99.90;;;;;;5074875;28;19935;-73
2021/08/16 03:32:09;;;;;;;;;;;14.60;99.90;;;;;;5075243;28;19954;-73
2021/08/16 03:34:35;;;;;;;;;;;14.50;99.90;;;;;;5074992;28;20470;-72
2021/08/16 03:37:02;;;;;;;;;;;14.50;99.90;;;;;;5074652;28;19935;-72
2021/08/16 03:39:29;;;;;;;;;;;14.60;99.90;;;;;;5074787;28;19925;-73
2021/08/16 03:41:56;;;;;;;;;;;14.60;99.90;;;;;;5074901;28;19928;-72
2021/08/16 03:44:24;;;;;;;;;;;14.60;99.90;;;;;;5074689;28;19924;-73
2021/08/16 03:46:51;;;;;;;;;;;14.60;99.90;;;;;;5074886;28;19925;-72
2021/08/16 03:49:18;;;;;;;;;;;14.60;99.90;;;;;;5074723;28;19924;-73
2021/08/16 03:51:45;;;;;;;;;;;14.60;99.90;;;;;;5074726;28;19931;-73
2021/08/16 03:54:11;;;;;;;;;;;14.60;99.90;;;;;;5074748;28;19958;-72
2021/08/16 03:56:38;;;;;;;;;;;14.70;99.90;;;;;;5074452;28;20345;-73
2021/08/16 03:59:05;;;;;;;;;;;14.70;99.90;;;;;;5074883;28;19936;-73
2021/08/16 04:01:33;;;;;;;;;;;14.70;99.90;;;;;;5074763;28;19929;-72
2021/08/16 04:04:01;;;;;;;;;;;14.70;99.90;;;;;;5076889;28;20370;-72
2021/08/16 04:06:28;;;;;;;;;;;14.70;99.90;;;;;;5078390;28;20268;-74
2021/08/16 04:08:55;;;;;;;;;;;14.70;99.90;;;;;;5078245;28;19932;-72
2021/08/16 04:11:22;;;;;;;;;;;14.70;99.90;;;;;;5078066;28;19938;-73
2021/08/16 04:13:49;;;;;;;;;;;14.70;99.90;;;;;;5078346;28;19928;-73
2021/08/16 04:16:16;;;;;;;;;;;14.70;99.90;;;;;;5078011;28;20356;-72
2021/08/16 04:18:44;;;;;;;;;;;14.70;99.90;;;;;;5078176;28;19929;-73
2021/08/16 04:21:11;;;;;;;;;;;14.70;99.90;;;;;;5078205;28;19950;-72
2021/08/16 04:23:38;;;;;;;;;;;14.80;99.90;;;;;;5078113;28;19931;-72
2021/08/16 04:26:04;;;;;;;;;;;14.80;99.90;;;;;;5078161;28;19924;-73
2021/08/16 04:28:31;;;;;;;;;;;14.80;99.90;;;;;;5078136;28;19924;-73
2021/08/16 04:30:58;;;;;;;;;;;14.80;99.90;;;;;;5077908;28;20352;-73
2021/08/16 04:33:25;;;;;;;;;;;14.80;99.90;;;;;;5077835;28;19924;-73
2021/08/16 04:35:53;;;;;;;;;;;14.70;99.90;;;;;;5078022;28;19932;-73
2021/08/16 04:38:22;;;;;;;;;;;14.80;99.90;;;;;;5077826;28;19932;-72
2021/08/16 04:40:48;;;;;;;;;;;14.70;99.90;;;;;;5077918;28;19943;-73
2021/08/16 04:43:15;;;;;;;;;;;14.70;99.90;;;;;;5077814;28;20259;-72
2021/08/16 04:45:42;;;;;;;;;;;14.70;99.90;;;;;;5077621;28;19935;-73
2021/08/16 04:48:09;;;;;;;;;;;14.70;99.90;;;;;;5077566;28;19924;-72
2021/08/16 04:50:36;;;;;;;;;;;14.70;99.90;;;;;;5077586;28;19935;-73
2021/08/16 04:53:04;;;;;;;;;;;14.70;99.90;;;;;;5077440;28;19924;-72
2021/08/16 04:55:31;;;;;;;;;;;14.70;99.90;;;;;;5077274;28;19925;-73
2021/08/16 04:57:58;;;;;;;;;;;14.70;99.90;;;;;;5077463;28;19925;-73
2021/08/16 05:00:26;;;;;;;;;;;14.70;99.90;;;;;;5077290;28;19928;-73
2021/08/16 05:02:53;;;;;;;;;;;14.70;99.90;;;;;;5077514;28;19932;-72
2021/08/16 05:05:22;;;;;;;;;;;14.70;99.90;;;;;;5077208;28;19932;-72
2021/08/16 05:07:49;;;;;;;;;;;14.70;99.90;;;;;;5077166;28;20352;-73
2021/08/16 05:10:17;;;;;;;;;;;14.60;99.90;;;;;;5077054;28;19942;-73
2021/08/16 05:12:44;;;;;;;;;;;14.60;99.90;;;;;;5077132;28;19924;-72
2021/08/16 05:15:11;;;;;;;;;;;14.60;99.90;;;;;;5076378;28;19925;-72
2021/08/16 05:17:38;;;;;;;;;;;14.50;99.90;;;;;;5077187;28;19924;-72
2021/08/16 05:20:06;;;;;;;;;;;14.50;99.90;;;;;;5076886;28;19935;-73
2021/08/16 05:22:33;;;;;;;;;;;14.50;99.90;;;;;;5076772;28;19925;-73
2021/08/16 05:24:59;;;;;;;;;;;14.50;99.90;;;;;;5077053;28;20041;-73
2021/08/16 05:27:28;;;;;;;;;;;14.50;99.90;;;;;;5077006;28;20238;-72
2021/08/16 05:29:54;;;;;;;;;;;14.40;99.90;;;;;;5076952;28;19936;-72
2021/08/16 05:32:21;;;;;;;;;;;14.40;99.90;;;;;;5076973;28;19924;-73
2021/08/16 05:34:48;;;;;;;;;;;14.30;99.90;;;;;;5076620;28;19925;-72
2021/08/16 05:37:15;;;;;;;;;;;14.30;99.90;;;;;;5076458;28;19939;-73
2021/08/16 05:39:42;;;;;;;;;;;14.30;99.90;;;;;;5076837;28;19924;-72
2021/08/16 05:42:08;;;;;;;;;;;14.20;99.90;;;;;;5076532;28;20366;-72
2021/08/16 05:44:37;;;;;;;;;;;14.20;99.90;;;;;;5076370;28;19924;-73
2021/08/16 05:47:05;;;;;;;;;;;14.10;99.90;;;;;;5076527;28;19935;-72
2021/08/16 05:49:32;;;;;;;;;;;14.10;99.90;;;;;;5076684;28;19924;-73
2021/08/16 05:51:59;;;;;;;;;;;14.10;99.90;;;;;;5076251;28;19924;-72
2021/08/16 05:54:26;;;;;;;;;;;14.10;99.90;;;;;;5076351;28;19932;-72
2021/08/16 05:56:52;;;;;;;;;;;14.10;99.90;;;;;;5076048;28;19925;-72
2021/08/16 05:59:19;;;;;;;;;;;14.20;99.90;;;;;;5076214;28;19928;-72
2021/08/16 06:01:47;;;;;;;;;;;14.20;99.90;;;;;;5076173;28;19930;-72
2021/08/16 06:04:14;;;;;;;;;;;14.30;99.90;;;;;;5076271;28;19939;-72
2021/08/16 06:06:41;;;;;;;;;;;14.30;99.90;;;;;;5075943;28;20356;-72
2021/08/16 06:09:08;;;;;;;;;;;14.30;99.90;;;;;;5075963;28;19924;-72
2021/08/16 06:11:35;;;;;;;;;;;14.40;99.90;;;;;;5076177;28;19939;-72
2021/08/16 06:14:02;;;;;;;;;;;14.40;99.90;;;;;;5076209;28;20245;-73
2021/08/16 06:16:28;;;;;;;;;;;14.50;99.90;;;;;;5075727;28;19998;-73
2021/08/16 06:18:57;;;;;;;;;;;14.60;99.90;;;;;;5075761;28;19924;-73
2021/08/16 06:21:23;;;;;;;;;;;14.60;99.90;;;;;;5075796;28;19935;-73
2021/08/16 06:23:50;;;;;;;;;;;14.70;99.90;;;;;;5075958;28;19935;-73
2021/08/16 06:26:17;;;;;;;;;;;14.90;99.90;;;;;;5075298;28;19925;-73
2021/08/16 06:28:44;;;;;;;;;;;15.00;99.90;;;;;;5075473;28;19943;-73
2021/08/16 06:31:11;;;;;;;;;;;15.00;99.90;;;;;;5076060;28;19950;-74
2021/08/16 06:33:40;;;;;;;;;;;15.00;99.90;;;;;;5075443;28;20366;-73
2021/08/16 06:36:08;;;;;;;;;;;14.90;99.90;;;;;;5075322;28;19924;-72
2021/08/16 06:38:35;;;;;;;;;;;14.80;99.90;;;;;;5075658;28;19935;-72
2021/08/16 06:41:02;;;;;;;;;;;14.80;99.90;;;;;;5075835;28;20238;-73
2021/08/16 06:43:29;;;;;;;;;;;14.70;99.90;;;;;;5075439;28;19931;-73
2021/08/16 06:45:55;;;;;;;;;;;14.70;99.90;;;;;;5075753;28;19929;-72
2021/08/16 06:48:22;;;;;;;;;;;14.60;99.90;;;;;;5075203;28;19976;-72
2021/08/16 06:50:49;;;;;;;;;;;14.50;99.90;;;;;;5075577;28;19940;-73
2021/08/16 06:53:17;;;;;;;;;;;14.40;99.90;;;;;;5075176;28;20344;-73
2021/08/16 06:55:45;;;;;;;;;;;14.40;99.90;;;;;;5075633;28;19928;-73
2021/08/16 06:58:12;;;;;;;;;;;14.30;99.90;;;;;;5075235;28;19936;-74
2021/08/16 07:00:41;;;;;;;;;;;14.20;99.90;;;;;;5075304;28;19935;-74
2021/08/16 07:03:09;;;;;;;;;;;14.10;99.90;;;;;;5075050;28;19970;-74
2021/08/16 07:05:36;;;;;;;;;;;14.10;99.90;;;;;;5075372;28;20302;-74
2021/08/16 07:08:03;;;;;;;;;;;14.00;99.90;;;;;;5075459;28;19930;-74
2021/08/16 07:10:31;;;;;;;;;;;14.00;99.90;;;;;;5075084;28;20257;-75
2021/08/16 07:12:58;;;;;;;;;;;13.90;99.90;;;;;;5075122;28;19978;-74
2021/08/16 07:15:25;;;;;;;;;;;13.90;99.90;;;;;;5075133;28;19924;-75
2021/08/16 07:17:52;;;;;;;;;;;13.90;99.90;;;;;;5075446;28;19935;-74
2021/08/16 07:20:19;;;;;;;;;;;13.90;99.90;;;;;;5075159;28;19928;-76
2021/08/16 07:22:46;;;;;;;;;;;13.80;99.90;;;;;;5074933;28;20374;-74
2021/08/16 07:25:12;;;;;;;;;;;13.80;99.90;;;;;;5074947;28;19935;-76
2021/08/16 07:27:41;;;;;;;;;;;13.80;99.90;;;;;;5075257;28;19935;-74
2021/08/16 07:30:08;;;;;;;;;;;13.90;99.90;;;;;;5074846;28;20020;-74
2021/08/16 07:32:35;;;;;;;;;;;13.80;99.90;;;;;;5075117;28;19928;-74
2021/08/16 07:35:02;;;;;;;;;;;13.90;99.90;;;;;;5075033;28;19924;-74
2021/08/16 07:37:28;;;;;;;;;;;13.90;99.90;;;;;;5074959;28;20023;-74
2021/08/16 07:39:55;;;;;;;;;;;13.90;99.90;;;;;;5079016;28;19924;-74
2021/08/16 07:42:25;;;;;;;;;;;13.90;99.90;;;;;;5078946;28;19925;-73
2021/08/16 07:44:54;;;;;;;;;;;14.00;99.90;;;;;;5078838;28;19932;-73
2021/08/16 07:47:20;;;;;;;;;;;14.00;99.90;;;;;;5078693;28;20382;-73
2021/08/16 07:49:47;;;;;;;;;;;14.00;99.90;;;;;;5078542;28;19924;-73
2021/08/16 07:52:14;;;;;;;;;;;13.90;99.90;;;;;;5078681;28;19924;-73
2021/08/16 07:54:41;;;;;;;;;;;13.90;99.90;;;;;;5078624;28;19935;-73
2021/08/16 07:57:08;;;;;;;;;;;14.00;99.90;;;;;;5078149;28;19925;-73
2021/08/16 07:59:35;;;;;;;;;;;14.00;99.90;;;;;;5078481;28;19935;-73
2021/08/16 08:02:03;;;;;;;;;;;14.10;99.90;;;;;;5078620;28;19935;-73
2021/08/16 08:04:30;;;;;;;;;;;14.10;99.90;;;;;;5078347;28;20257;-73
2021/08/16 08:06:56;;;;;;;;;;;14.20;99.90;;;;;;5078270;28;19924;-73
2021/08/16 08:09:23;;;;;;;;;;;14.20;99.90;;;;;;5078296;28;19925;-73
2021/08/16 08:11:50;;;;;;;;;;;14.30;99.90;;;;;;5078102;28;19924;-73
2021/08/16 08:14:17;;;;;;;;;;;14.30;99.90;;;;;;5078052;28;19931;-73
2021/08/16 08:16:44;;;;;;;;;;;14.30;99.90;;;;;;5078267;28;19925;-73
2021/08/16 08:19:12;;;;;;;;;;;14.40;99.90;;;;;;5078357;28;19925;-73
2021/08/16 08:21:39;;;;;;;;;;;14.40;99.90;;;;;;5078067;28;19935;-74
2021/08/16 08:24:06;;;;;;;;;;;14.50;99.90;;;;;;5077995;28;19939;-75
2021/08/16 08:26:32;;;;;;;;;;;14.60;99.90;;;;;;5078016;28;19924;-74
2021/08/16 08:29:00;;;;;;;;;;;14.70;99.90;;;;;;5077913;28;20236;-74
2021/08/16 08:31:27;;;;;;;;;;;14.70;99.90;;;;;;5077867;28;19990;-74
2021/08/16 08:33:54;;;;;;;;;;;14.70;99.90;;;;;;5078028;28;19932;-75
2021/08/16 08:36:23;;;;;;;;;;;14.80;99.90;;;;;;5081007;28;20362;-75
2021/08/16 08:38:51;;;;;;;;;;;14.90;99.90;;;;;;5096848;28;19924;-74
2021/08/16 08:41:19;;;;;;;;;;;14.90;99.90;;;;;;5097855;28;19924;-74
2021/08/16 08:43:47;;;;;;;;;;;14.90;99.90;;;;;;5098049;28;19928;-74
2021/08/16 08:46:15;;;;;;;;;;;14.90;99.90;;;;;;5098021;28;19923;-74
2021/08/16 08:48:42;;;;;;;;;;;14.90;99.90;;;;;;5097746;28;19924;-74
2021/08/16 08:51:08;;;;;;;;;;;14.90;99.90;;;;;;5096787;28;19924;-74
2021/08/16 08:53:37;;;;;;;;;;;14.90;99.90;;;;;;5097854;28;19939;-74
2021/08/16 08:56:05;;;;;;;;;;;15.00;99.90;;;;;;5097826;28;19925;-74
2021/08/16 08:58:31;;;;;;;;;;;15.00;99.90;;;;;;5097351;28;20253;-74
2021/08/16 09:00:59;;;;;;;;;;;15.10;99.90;;;;;;5097831;28;19924;-74
2021/08/16 09:03:26;;;;;;;;;;;15.10;99.90;;;;;;5097480;28;19935;-74
2021/08/16 09:05:53;;;;;;;;;;;15.20;99.90;;;;;;5096555;28;19924;-74
2021/08/16 09:08:23;;;;;;;;;;;15.30;99.90;;;;;;5097398;28;19947;-74
2021/08/16 09:10:52;;;;;;;;;;;15.30;99.90;;;;;;5097548;28;19996;-74
2021/08/16 09:13:24;;;;;;;;;;;15.30;99.90;;;;;;5097399;28;19924;-74
2021/08/16 09:15:51;;;;;;;;;;;15.30;99.90;;;;;;5097471;28;20374;-74
2021/08/16 09:18:27;;;;;;;;;;;15.20;99.90;;;;;;5097110;28;19932;-74
2021/08/16 09:20:54;;;;;;;;;;;15.30;99.90;;;;;;5096988;28;19934;-74
2021/08/16 09:23:21;;;;;;;;;;;15.10;99.90;;;;;;5097331;28;19930;-74
2021/08/16 09:25:52;;;;;;;;;;;15.10;99.90;;;;;;5097223;28;19950;-74
2021/08/16 09:28:26;;;;;;;;;;;15.00;99.90;;;;;;5096997;28;20382;-74
2021/08/16 09:30:52;;;;;;;;;;;15.10;99.90;;;;;;5097194;28;19924;-74
2021/08/16 09:33:21;;;;;;;;;;;15.20;99.90;;;;;;5096931;28;20233;-74
2021/08/16 09:35:53;;;;;;;;;;;15.30;99.90;;;;;;5096817;28;19924;-74
2021/08/16 09:38:36;;;;;;;;;;;15.30;99.90;;;;;;5096915;28;20251;-74
2021/08/16 09:41:05;;;;;;;;;;;15.30;99.90;;;;;;5093313;28;20344;-74
2021/08/16 09:43:33;;;;;;;;;;;15.40;99.90;;;;;;5096388;28;19934;-74
2021/08/16 09:46:02;;;;;;;;;;;15.40;99.90;;;;;;5096532;28;19937;-74
2021/08/16 09:48:29;;;;;;;;;;;15.30;99.90;;;;;;5095177;28;19925;-75
2021/08/16 09:50:56;;;;;;;;;;;15.30;99.90;;;;;;5097083;28;19928;-73
2021/08/16 09:53:23;;;;;;;;;;;15.20;99.90;;;;;;5094844;28;20267;-73
2021/08/16 09:55:51;;;;;;;;;;;15.00;99.90;;;;;;5096351;28;19935;-73
2021/08/16 09:58:18;;;;;;;;;;;14.90;99.90;;;;;;5096422;28;19924;-73
2021/08/16 10:00:49;;;;;;;;;;;14.80;99.90;;;;;;5096119;28;19924;-72
2021/08/16 10:03:17;;;;;;;;;;;14.70;99.90;;;;;;5096928;28;19928;-71
2021/08/16 10:05:47;;;;;;;;;;;14.70;99.90;;;;;;5096447;28;20340;-77
2021/08/16 10:08:15;;;;;;;;;;;14.70;99.90;;;;;;5096343;28;20039;-69
2021/08/16 10:10:43;;;;;;;;;;;14.60;99.90;;;;;;5096282;28;19924;-68
2021/08/16 10:13:13;;;;;;;;;;;14.60;99.90;;;;;;5095459;28;20203;-68
2021/08/16 10:15:42;;;;;;;;;;;14.70;99.90;;;;;;5096102;28;20402;-69
2021/08/16 10:18:13;;;;;;;;;;;14.70;99.90;;;;;;5096179;28;19924;-69
2021/08/16 10:20:41;;;;;;;;;;;14.70;99.90;;;;;;5096237;28;19924;-68
2021/08/16 10:23:18;;;;;;;;;;;14.80;99.90;;;;;;5095929;28;19935;-69
2021/08/16 10:25:45;;;;;;;;;;;14.80;99.90;;;;;;5094716;28;19924;-69
2021/08/16 10:28:22;;;;;;;;;;;14.90;99.90;;;;;;5095308;28;19989;-69
2021/08/16 10:30:49;;;;;;;;;;;14.90;99.90;;;;;;5095825;28;19927;-69
2021/08/16 10:33:17;;;;;;;;;;;15.00;99.90;;;;;;5096009;28;19927;-69
2021/08/16 10:35:45;;;;;;;;;;;15.00;99.90;;;;;;5095742;28;19934;-69
2021/08/16 10:38:12;;;;;;;;;;;15.00;99.90;;;;;;5095653;28;19924;-69
2021/08/16 10:40:39;;;;;;;;;;;15.10;99.90;;;;;;5095634;28;19931;-69
2021/08/16 10:43:07;;;;;;;;;;;15.10;99.90;;;;;;5095818;28;19928;-69
2021/08/16 10:45:35;;;;;;;;;;;15.10;99.90;;;;;;5095584;28;19924;-69
2021/08/16 10:48:02;;;;;;;;;;;15.20;99.90;;;;;;5094643;28;19924;-69
2021/08/16 10:50:31;;;;;;;;;;;15.30;99.90;;;;;;5094472;28;19935;-69
2021/08/16 10:53:01;;;;;;;;;;;15.50;99.90;;;;;;5095447;28;20272;-69
2021/08/16 10:55:30;;;;;;;;;;;15.60;99.90;;;;;;5095940;28;19924;-69
2021/08/16 10:57:57;;;;;;;;;;;15.70;99.90;;;;;;5095172;28;20294;-69
2021/08/16 11:00:24;;;;;;;;;;;15.70;99.90;;;;;;5095450;28;19942;-69
2021/08/16 11:02:54;;;;;;;;;;;15.70;99.90;;;;;;5095393;28;19924;-69
2021/08/16 11:05:31;;;;;;;;;;;15.70;99.90;;;;;;5095401;28;20344;-69
2021/08/16 11:08:03;;;;;;;;;;;15.70;99.90;;;;;;5095610;28;20003;-69
2021/08/16 11:10:37;;;;;;;;;;;15.80;99.90;;;;;;5095465;28;19924;-69
2021/08/16 11:13:09;;;;;;;;;;;15.80;99.90;;;;;;5094938;28;20391;-69
2021/08/16 11:15:38;;;;;;;;;;;15.70;99.90;;;;;;5095286;28;19924;-69
2021/08/16 11:18:12;;;;;;;;;;;15.80;99.90;;;;;;5095022;28;19924;-69
2021/08/16 11:20:39;;;;;;;;;;;16.00;99.90;;;;;;5095382;28;19924;-69
2021/08/16 11:23:08;;;;;;;;;;;16.20;99.90;;;;;;5095303;28;19939;-69
2021/08/16 11:25:39;;;;;;;;;;;16.40;99.90;;;;;;5095080;28;20276;-69
2021/08/16 11:28:07;;;;;;;;;;;16.60;99.90;;;;;;5095159;28;19924;-69
2021/08/16 11:30:35;;;;;;;;;;;16.80;99.90;;;;;;5095014;28;19989;-69
2021/08/16 11:33:02;;;;;;;;;;;16.80;99.90;;;;;;5095245;28;19936;-69
2021/08/16 11:35:29;;;;;;;;;;;16.80;99.90;;;;;;5094980;28;19925;-69
2021/08/16 11:37:57;;;;;;;;;;;16.70;99.90;;;;;;5095186;28;19928;-69
2021/08/16 11:40:27;;;;;;;;;;;16.60;99.90;;;;;;5095156;28;19924;-69
2021/08/16 11:42:55;;;;;;;;;;;16.70;99.90;;;;;;5094973;28;19924;-69
2021/08/16 11:45:23;;;;;;;;;;;16.70;99.90;;;;;;5094895;28;19928;-69
2021/08/16 11:47:52;;;;;;;;;;;16.60;99.90;;;;;;5094903;28;20347;-69
2021/08/16 11:50:20;;;;;;;;;;;16.50;99.90;;;;;;5094860;28;19928;-69
2021/08/16 11:52:50;;;;;;;;;;;16.40;99.90;;;;;;5095269;28;19928;-69
2021/08/16 11:55:24;;;;;;;;;;;16.40;99.90;;;;;;5094951;28;20351;-69
2021/08/16 11:57:54;;;;;;;;;;;16.40;99.90;;;;;;5094799;28;19924;-69
2021/08/16 12:00:25;;;;;;;;;;;16.30;99.90;;;;;;5095015;28;19989;-69
2021/08/16 12:02:55;;;;;;;;;;;16.30;99.90;;;;;;5094797;28;19932;-69
2021/08/16 12:05:23;;;;;;;;;;;16.20;99.90;;;;;;5094849;28;19924;-69
2021/08/16 12:07:51;;;;;;;;;;;16.20;99.90;;;;;;5094996;28;19924;-69
2021/08/16 12:10:20;;;;;;;;;;;16.20;99.90;;;;;;5094651;28;19924;-69
2021/08/16 12:12:59;;;;;;;;;;;16.10;99.90;;;;;;5094999;28;20324;-69
2021/08/16 12:15:26;;;;;;;;;;;15.90;99.90;;;;;;5094834;28;19924;-69
2021/08/16 12:18:04;;;;;;;;;;;15.70;99.90;;;;;;5094714;28;19932;-69
2021/08/16 12:20:39;;;;;;;;;;;15.60;99.90;;;;;;5094623;28;20264;-70
2021/08/16 12:23:07;;;;;;;;;;;15.50;99.90;;;;;;5094575;28;19950;-69
2021/08/16 12:25:45;;;;;;;;;;;15.30;99.90;;;;;;5097727;28;19924;-68
2021/08/16 12:28:14;;;;;;;;;;;15.30;99.90;;;;;;5098409;28;19924;-70
2021/08/16 12:30:42;;;;;;;;;;;15.10;99.90;;;;;;5098226;28;19924;-69
2021/08/16 12:33:11;;;;;;;;;;;15.20;99.90;;;;;;5098110;28;19924;-71
2021/08/16 12:35:38;;;;;;;;;;;15.30;99.90;;;;;;5098269;28;20366;-71
2021/08/16 12:38:06;;;;;;;;;;;15.40;99.90;;;;;;5098000;28;19924;-74
2021/08/16 12:40:34;;;;;;;;;;;15.60;99.90;;;;;;5098455;28;19936;-72
2021/08/16 12:43:02;;;;;;;;;;;15.70;99.90;;;;;;5098132;28;19974;-74
2021/08/16 12:45:32;;;;;;;;;;;15.80;99.90;;;;;;5097939;28;19924;-73
2021/08/16 12:48:00;;;;;;;;;;;15.90;99.90;;;;;;5098160;28;19924;-69
2021/08/16 12:50:27;;;;;;;;;;;15.90;99.90;;;;;;5098141;28;20283;-73
2021/08/16 12:52:58;;;;;;;;;;;16.00;99.90;;;;;;5097794;28;19924;-71
2021/08/16 12:55:26;;;;;;;;;;;16.10;99.90;;;;;;5097744;28;19924;-68
2021/08/16 12:57:54;;;;;;;;;;;16.20;99.90;;;;;;5097396;28;19935;-67
2021/08/16 13:00:22;;;;;;;;;;;16.20;99.90;;;;;;5074136;28;19924;-71
2021/08/16 13:02:51;;;;;;;;;;;16.30;99.90;;;;;;5094418;28;19928;-68
2021/08/16 13:05:19;;;;;;;;;;;16.40;99.90;;;;;;5097436;28;20319;-71
2021/08/16 13:07:46;;;;;;;;;;;16.50;99.90;;;;;;5097597;28;19931;-70
2021/08/16 13:10:12;;;;;;;;;;;16.50;99.90;;;;;;5097506;28;19924;-73
2021/08/16 13:12:42;;;;;;;;;;;16.60;99.90;;;;;;5086911;28;19979;-69
2021/08/16 13:15:11;;;;;;;;;;;16.70;99.90;;;;;;5077048;28;19931;-71
2021/08/16 13:17:39;;;;;;;;;;;16.70;99.90;;;;;;5077231;28;19934;-69
2021/08/16 13:20:09;;;;;;;;;;;16.80;99.90;;;;;;5074640;28;19925;-69
2021/08/16 13:22:36;;;;;;;;;;;16.80;99.90;;;;;;5092578;28;19930;-72
2021/08/16 13:25:03;;;;;;;;;;;16.70;99.90;;;;;;5095481;28;19924;-71
2021/08/16 13:27:31;;;;;;;;;;;16.70;99.90;;;;;;5096285;28;19930;-71
2021/08/16 13:29:58;;;;;;;;;;;16.60;99.90;;;;;;5097498;28;19928;-71
2021/08/16 13:32:26;;;;;;;;;;;16.50;99.90;;;;;;5097298;28;19932;-72
2021/08/16 13:34:54;;;;;;;;;;;16.40;99.90;;;;;;5096981;28;19923;-72
2021/08/16 13:37:23;;;;;;;;;;;16.40;99.90;;;;;;5096510;28;19923;-72
2021/08/16 13:39:51;;;;;;;;;;;16.30;99.90;;;;;;5096844;28;20249;-72
2021/08/16 13:42:21;;;;;;;;;;;16.30;99.90;;;;;;5096726;28;19939;-71
2021/08/16 13:44:47;;;;;;;;;;;16.20;99.90;;;;;;5096754;28;19924;-72
2021/08/16 13:47:14;;;;;;;;;;;16.10;99.90;;;;;;5096942;28;19932;-72
2021/08/16 13:49:41;;;;;;;;;;;16.00;99.90;;;;;;5096676;28;20266;-72
2021/08/16 13:52:08;;;;;;;;;;;15.90;99.90;;;;;;5096730;28;19935;-70
2021/08/16 13:54:36;;;;;;;;;;;15.90;99.90;;;;;;5096533;28;19924;-71
2021/08/16 13:57:03;;;;;;;;;;;15.90;99.90;;;;;;5096407;28;19935;-71
2021/08/16 13:59:30;;;;;;;;;;;15.90;99.90;;;;;;5096618;28;19935;-69
2021/08/16 14:01:58;;;;;;;;;;;16.00;99.90;;;;;;5096761;28;20294;-70
2021/08/16 14:04:25;;;;;;;;;;;16.00;99.90;;;;;;5096395;28;19946;-71
2021/08/16 14:06:53;;;;;;;;;;;16.10;99.90;;;;;;5096397;28;19924;-71
2021/08/16 14:09:21;;;;;;;;;;;16.10;99.90;;;;;;5095333;28;20256;-71
2021/08/16 14:11:53;;;;;;;;;;;16.20;99.90;;;;;;5096536;28;20259;-71
2021/08/16 14:14:21;;;;;;;;;;;16.40;99.90;;;;;;5096197;28;19935;-72
2021/08/16 14:16:49;;;;;;;;;;;16.50;99.90;;;;;;5096116;28;20359;-71
2021/08/16 14:19:17;;;;;;;;;;;16.60;99.90;;;;;;5096120;28;20354;-72